sensor_id;sensor_type;location;lat;lon;timestamp;temperature;humidity
21891;DHT22;11110;52.386;16.940;2023-03-17T00:01:50;16.90;37.30
21891;DHT22;11110;52.386;16.940;2023-03-17T00:04:21;16.90;37.40
21891;DHT22;11110;52.386;16.940;2023-03-17T00:06:51;17.00;37.40
21891;DHT22;11110;52.386;16.940;2023-03-17T00:09:20;17.00;37.40
21891;DHT22;11110;52.386;16.940;2023-03-17T00:11:51;17.00;37.40
21891;DHT22;11110;52.386;16.940;2023-03-17T00:14:19;16.90;37.30
21891;DHT22;11110;52.386;16.940;2023-03-17T00:16:49;16.90;37.40
21891;DHT22;11110;52.386;16.940;2023-03-17T00:19:22;17.00;37.60
21891;DHT22;11110;52.386;16.940;2023-03-17T00:21:53;17.00;37.60
21891;DHT22;11110;52.386;16.940;2023-03-17T00:24:22;16.90;37.50
21891;DHT22;11110;52.386;16.940;2023-03-17T00:26:52;16.90;37.60
21891;DHT22;11110;52.386;16.940;2023-03-17T00:29:21;16.90;37.60
21891;DHT22;11110;52.386;16.940;2023-03-17T00:31:50;16.80;37.70
21891;DHT22;11110;52.386;16.940;2023-03-17T00:34:21;16.90;37.80
21891;DHT22;11110;52.386;16.940;2023-03-17T00:36:50;16.80;37.60
21891;DHT22;11110;52.386;16.940;2023-03-17T00:39:21;16.80;37.70
21891;DHT22;11110;52.386;16.940;2023-03-17T00:41:55;16.70;37.70
21891;DHT22;11110;52.386;16.940;2023-03-17T00:44:24;16.70;37.80
21891;DHT22;11110;52.386;16.940;2023-03-17T00:46:53;16.70;37.90
21891;DHT22;11110;52.386;16.940;2023-03-17T00:49:23;16.70;38.00
21891;DHT22;11110;52.386;16.940;2023-03-17T00:51:53;16.60;38.00
21891;DHT22;11110;52.386;16.940;2023-03-17T00:54:22;16.60;38.20
21891;DHT22;11110;52.386;16.940;2023-03-17T00:56:51;16.50;38.10
21891;DHT22;11110;52.386;16.940;2023-03-17T00:59:25;16.50;38.20
21891;DHT22;11110;52.386;16.940;2023-03-17T01:01:55;16.60;38.40
21891;DHT22;11110;52.386;16.940;2023-03-17T01:04:24;16.50;38.30
21891;DHT22;11110;52.386;16.940;2023-03-17T01:06:53;16.50;38.30
21891;DHT22;11110;52.386;16.940;2023-03-17T01:09:25;16.60;38.30
21891;DHT22;11110;52.386;16.940;2023-03-17T01:11:54;16.60;38.40
21891;DHT22;11110;52.386;16.940;2023-03-17T01:14:24;16.50;38.30
21891;DHT22;11110;52.386;16.940;2023-03-17T01:16:53;16.60;38.40
21891;DHT22;11110;52.386;16.940;2023-03-17T01:19:22;16.60;38.40
21891;DHT22;11110;52.386;16.940;2023-03-17T01:21:51;16.60;38.40
21891;DHT22;11110;52.386;16.940;2023-03-17T01:24:19;16.50;38.30
21891;DHT22;11110;52.386;16.940;2023-03-17T01:26:48;16.40;38.40
21891;DHT22;11110;52.386;16.940;2023-03-17T01:29:17;16.40;38.70
21891;DHT22;11110;52.386;16.940;2023-03-17T01:31:47;16.20;38.60
21891;DHT22;11110;52.386;16.940;2023-03-17T01:34:15;16.30;39.00
21891;DHT22;11110;52.386;16.940;2023-03-17T01:36:44;16.30;39.00
21891;DHT22;11110;52.386;16.940;2023-03-17T01:39:13;16.20;39.00
21891;DHT22;11110;52.386;16.940;2023-03-17T01:41:42;16.20;39.10
21891;DHT22;11110;52.386;16.940;2023-03-17T01:44:14;16.10;39.10
21891;DHT22;11110;52.386;16.940;2023-03-17T01:46:43;16.00;39.10
21891;DHT22;11110;52.386;16.940;2023-03-17T01:49:22;16.10;39.30
21891;DHT22;11110;52.386;16.940;2023-03-17T01:52:00;16.10;39.10
21891;DHT22;11110;52.386;16.940;2023-03-17T01:54:33;16.00;39.00
21891;DHT22;11110;52.386;16.940;2023-03-17T01:57:08;16.20;39.20
21891;DHT22;11110;52.386;16.940;2023-03-17T01:59:42;16.20;39.20
21891;DHT22;11110;52.386;16.940;2023-03-17T02:02:15;16.30;39.10
21891;DHT22;11110;52.386;16.940;2023-03-17T02:04:46;16.30;39.10
21891;DHT22;11110;52.386;16.940;2023-03-17T02:07:15;16.40;38.80
21891;DHT22;11110;52.386;16.940;2023-03-17T02:09:44;16.50;38.80
21891;DHT22;11110;52.386;16.940;2023-03-17T02:12:13;16.40;38.70
21891;DHT22;11110;52.386;16.940;2023-03-17T02:14:42;16.40;38.70
21891;DHT22;11110;52.386;16.940;2023-03-17T02:17:12;16.40;38.70
21891;DHT22;11110;52.386;16.940;2023-03-17T02:19:41;16.30;38.70
21891;DHT22;11110;52.386;16.940;2023-03-17T02:22:11;16.30;38.90
21891;DHT22;11110;52.386;16.940;2023-03-17T02:24:46;16.30;38.90
21891;DHT22;11110;52.386;16.940;2023-03-17T02:27:18;16.40;38.90
21891;DHT22;11110;52.386;16.940;2023-03-17T02:29:49;16.30;38.80
21891;DHT22;11110;52.386;16.940;2023-03-17T02:32:18;16.20;38.80
21891;DHT22;11110;52.386;16.940;2023-03-17T02:34:47;16.20;39.00
21891;DHT22;11110;52.386;16.940;2023-03-17T02:37:19;16.10;39.00
21891;DHT22;11110;52.386;16.940;2023-03-17T02:39:47;16.10;39.00
21891;DHT22;11110;52.386;16.940;2023-03-17T02:42:16;16.10;39.00
21891;DHT22;11110;52.386;16.940;2023-03-17T02:44:44;16.10;39.20
21891;DHT22;11110;52.386;16.940;2023-03-17T02:47:13;16.00;39.10
21891;DHT22;11110;52.386;16.940;2023-03-17T02:49:42;16.10;39.30
21891;DHT22;11110;52.386;16.940;2023-03-17T02:52:12;16.10;39.20
21891;DHT22;11110;52.386;16.940;2023-03-17T02:54:42;16.10;39.20
21891;DHT22;11110;52.386;16.940;2023-03-17T02:57:11;16.10;39.00
21891;DHT22;11110;52.386;16.940;2023-03-17T02:59:39;16.20;39.20
21891;DHT22;11110;52.386;16.940;2023-03-17T03:02:09;16.10;39.00
21891;DHT22;11110;52.386;16.940;2023-03-17T03:04:37;16.00;39.10
21891;DHT22;11110;52.386;16.940;2023-03-17T03:07:06;16.00;39.20
21891;DHT22;11110;52.386;16.940;2023-03-17T03:09:35;16.00;39.30
21891;DHT22;11110;52.386;16.940;2023-03-17T03:12:05;16.00;39.30
21891;DHT22;11110;52.386;16.940;2023-03-17T03:14:36;16.00;39.30
21891;DHT22;11110;52.386;16.940;2023-03-17T03:17:05;16.00;39.30
21891;DHT22;11110;52.386;16.940;2023-03-17T03:19:33;16.00;39.30
21891;DHT22;11110;52.386;16.940;2023-03-17T03:22:02;16.00;39.20
21891;DHT22;11110;52.386;16.940;2023-03-17T03:24:31;15.90;39.00
21891;DHT22;11110;52.386;16.940;2023-03-17T03:26:59;15.90;39.20
21891;DHT22;11110;52.386;16.940;2023-03-17T03:29:29;15.90;39.20
21891;DHT22;11110;52.386;16.940;2023-03-17T03:31:58;15.80;39.20
21891;DHT22;11110;52.386;16.940;2023-03-17T03:34:27;15.80;39.50
21891;DHT22;11110;52.386;16.940;2023-03-17T03:36:55;15.80;39.40
21891;DHT22;11110;52.386;16.940;2023-03-17T03:39:24;15.80;39.30
21891;DHT22;11110;52.386;16.940;2023-03-17T03:41:53;15.80;39.10
21891;DHT22;11110;52.386;16.940;2023-03-17T03:44:23;15.80;39.20
21891;DHT22;11110;52.386;16.940;2023-03-17T03:46:53;15.80;39.10
21891;DHT22;11110;52.386;16.940;2023-03-17T03:49:22;15.80;39.20
21891;DHT22;11110;52.386;16.940;2023-03-17T03:51:50;15.70;39.30
21891;DHT22;11110;52.386;16.940;2023-03-17T03:54:19;15.70;39.30
21891;DHT22;11110;52.386;16.940;2023-03-17T03:56:48;15.60;39.30
21891;DHT22;11110;52.386;16.940;2023-03-17T03:59:16;15.70;39.40
21891;DHT22;11110;52.386;16.940;2023-03-17T04:01:45;15.70;39.40
21891;DHT22;11110;52.386;16.940;2023-03-17T04:04:15;15.60;39.30
21891;DHT22;11110;52.386;16.940;2023-03-17T04:06:44;15.60;39.50
21891;DHT22;11110;52.386;16.940;2023-03-17T04:09:12;15.50;39.40
21891;DHT22;11110;52.386;16.940;2023-03-17T04:11:41;15.60;39.50
21891;DHT22;11110;52.386;16.940;2023-03-17T04:14:09;15.70;39.40
21891;DHT22;11110;52.386;16.940;2023-03-17T04:16:39;15.60;39.20
21891;DHT22;11110;52.386;16.940;2023-03-17T04:19:09;15.60;39.30
21891;DHT22;11110;52.386;16.940;2023-03-17T04:21:40;15.60;39.40
21891;DHT22;11110;52.386;16.940;2023-03-17T04:24:09;15.60;39.40
21891;DHT22;11110;52.386;16.940;2023-03-17T04:26:38;15.60;39.40
21891;DHT22;11110;52.386;16.940;2023-03-17T04:29:07;15.70;39.40
21891;DHT22;11110;52.386;16.940;2023-03-17T04:31:37;15.70;39.30
21891;DHT22;11110;52.386;16.940;2023-03-17T04:34:06;15.70;39.30
21891;DHT22;11110;52.386;16.940;2023-03-17T04:36:35;15.70;39.30
21891;DHT22;11110;52.386;16.940;2023-03-17T04:39:05;15.70;39.10
21891;DHT22;11110;52.386;16.940;2023-03-17T04:41:34;15.70;39.10
21891;DHT22;11110;52.386;16.940;2023-03-17T04:44:02;15.70;39.00
21891;DHT22;11110;52.386;16.940;2023-03-17T04:46:32;15.60;39.00
21891;DHT22;11110;52.386;16.940;2023-03-17T04:49:01;15.70;39.00
21891;DHT22;11110;52.386;16.940;2023-03-17T04:51:30;15.70;39.00
21891;DHT22;11110;52.386;16.940;2023-03-17T04:53:58;15.60;38.90
21891;DHT22;11110;52.386;16.940;2023-03-17T04:56:29;15.60;39.00
21891;DHT22;11110;52.386;16.940;2023-03-17T04:58:58;15.60;38.90
21891;DHT22;11110;52.386;16.940;2023-03-17T05:01:27;15.60;39.00
21891;DHT22;11110;52.386;16.940;2023-03-17T05:03:56;15.60;38.90
21891;DHT22;11110;52.386;16.940;2023-03-17T05:06:24;15.70;38.90
21891;DHT22;11110;52.386;16.940;2023-03-17T05:08:53;15.70;38.80
21891;DHT22;11110;52.386;16.940;2023-03-17T05:11:22;15.70;38.80
21891;DHT22;11110;52.386;16.940;2023-03-17T05:13:52;15.80;38.70
21891;DHT22;11110;52.386;16.940;2023-03-17T05:16:21;15.90;38.60
21891;DHT22;11110;52.386;16.940;2023-03-17T05:18:50;15.80;38.50
21891;DHT22;11110;52.386;16.940;2023-03-17T05:21:18;15.80;38.40
21891;DHT22;11110;52.386;16.940;2023-03-17T05:23:47;15.90;38.50
21891;DHT22;11110;52.386;16.940;2023-03-17T05:26:16;15.90;38.40
21891;DHT22;11110;52.386;16.940;2023-03-17T05:28:44;15.20;38.10
21891;DHT22;11110;52.386;16.940;2023-03-17T05:31:16;15.80;38.90
21891;DHT22;11110;52.386;16.940;2023-03-17T05:33:45;15.80;38.40
21891;DHT22;11110;52.386;16.940;2023-03-17T05:36:15;15.80;38.40
21891;DHT22;11110;52.386;16.940;2023-03-17T05:38:44;15.70;38.30
21891;DHT22;11110;52.386;16.940;2023-03-17T05:41:13;15.70;38.40
21891;DHT22;11110;52.386;16.940;2023-03-17T05:43:42;15.70;38.40
21891;DHT22;11110;52.386;16.940;2023-03-17T05:46:11;15.70;38.40
21891;DHT22;11110;52.386;16.940;2023-03-17T05:48:41;15.60;38.40
21891;DHT22;11110;52.386;16.940;2023-03-17T05:51:10;15.70;38.40
21891;DHT22;11110;52.386;16.940;2023-03-17T05:53:38;15.60;38.40
21891;DHT22;11110;52.386;16.940;2023-03-17T05:56:08;15.60;38.40
21891;DHT22;11110;52.386;16.940;2023-03-17T05:58:36;15.70;38.50
21891;DHT22;11110;52.386;16.940;2023-03-17T06:01:05;15.70;38.40
21891;DHT22;11110;52.386;16.940;2023-03-17T06:03:34;15.80;38.30
21891;DHT22;11110;52.386;16.940;2023-03-17T06:06:07;15.80;38.30
21891;DHT22;11110;52.386;16.940;2023-03-17T06:08:35;15.80;38.30
21891;DHT22;11110;52.386;16.940;2023-03-17T06:11:04;15.80;38.40
21891;DHT22;11110;52.386;16.940;2023-03-17T06:13:33;15.90;38.20
21891;DHT22;11110;52.386;16.940;2023-03-17T06:16:02;15.80;38.20
21891;DHT22;11110;52.386;16.940;2023-03-17T06:18:30;15.80;38.30
21891;DHT22;11110;52.386;16.940;2023-03-17T06:20:59;15.80;38.30
21891;DHT22;11110;52.386;16.940;2023-03-17T06:23:29;15.90;38.20
21891;DHT22;11110;52.386;16.940;2023-03-17T06:25:58;15.90;38.20
21891;DHT22;11110;52.386;16.940;2023-03-17T06:28:27;15.80;38.10
21891;DHT22;11110;52.386;16.940;2023-03-17T06:30:56;16.00;38.20
21891;DHT22;11110;52.386;16.940;2023-03-17T06:33:25;16.00;38.20
21891;DHT22;11110;52.386;16.940;2023-03-17T06:35:54;16.00;38.10
21891;DHT22;11110;52.386;16.940;2023-03-17T06:38:24;16.10;38.00
21891;DHT22;11110;52.386;16.940;2023-03-17T06:40:54;16.20;37.70
21891;DHT22;11110;52.386;16.940;2023-03-17T06:43:24;16.10;37.70
21891;DHT22;11110;52.386;16.940;2023-03-17T06:45:52;16.10;37.80
21891;DHT22;11110;52.386;16.940;2023-03-17T06:48:21;16.20;37.80
21891;DHT22;11110;52.386;16.940;2023-03-17T06:50:50;16.30;37.70
21891;DHT22;11110;52.386;16.940;2023-03-17T06:53:19;16.30;37.60
21891;DHT22;11110;52.386;16.940;2023-03-17T06:55:47;16.30;37.50
21891;DHT22;11110;52.386;16.940;2023-03-17T06:58:17;16.40;37.50
21891;DHT22;11110;52.386;16.940;2023-03-17T07:00:47;16.50;37.40
21891;DHT22;11110;52.386;16.940;2023-03-17T07:03:20;16.50;37.20
21891;DHT22;11110;52.386;16.940;2023-03-17T07:05:50;16.60;37.20
21891;DHT22;11110;52.386;16.940;2023-03-17T07:08:19;16.50;37.20
21891;DHT22;11110;52.386;16.940;2023-03-17T07:10:48;16.60;37.00
21891;DHT22;11110;52.386;16.940;2023-03-17T07:13:18;16.60;37.00
21891;DHT22;11110;52.386;16.940;2023-03-17T07:15:49;16.70;36.80
21891;DHT22;11110;52.386;16.940;2023-03-17T07:18:21;16.60;36.80
21891;DHT22;11110;52.386;16.940;2023-03-17T07:20:50;16.50;36.80
21891;DHT22;11110;52.386;16.940;2023-03-17T07:23:20;16.60;36.70
21891;DHT22;11110;52.386;16.940;2023-03-17T07:25:49;16.60;36.60
21891;DHT22;11110;52.386;16.940;2023-03-17T07:28:20;16.70;36.40
21891;DHT22;11110;52.386;16.940;2023-03-17T07:30:49;16.80;36.40
21891;DHT22;11110;52.386;16.940;2023-03-17T07:33:18;17.00;36.30
21891;DHT22;11110;52.386;16.940;2023-03-17T07:35:48;17.20;36.20
21891;DHT22;11110;52.386;16.940;2023-03-17T07:38:18;17.30;36.10
21891;DHT22;11110;52.386;16.940;2023-03-17T07:40:49;17.40;36.00
21891;DHT22;11110;52.386;16.940;2023-03-17T07:43:20;17.50;35.90
21891;DHT22;11110;52.386;16.940;2023-03-17T07:45:49;17.60;35.60
21891;DHT22;11110;52.386;16.940;2023-03-17T07:48:18;17.70;35.40
21891;DHT22;11110;52.386;16.940;2023-03-17T07:50:47;17.80;35.60
21891;DHT22;11110;52.386;16.940;2023-03-17T07:53:16;17.80;35.60
21891;DHT22;11110;52.386;16.940;2023-03-17T07:55:45;18.00;35.30
21891;DHT22;11110;52.386;16.940;2023-03-17T07:58:13;18.00;35.50
21891;DHT22;11110;52.386;16.940;2023-03-17T08:00:44;18.10;35.20
21891;DHT22;11110;52.386;16.940;2023-03-17T08:03:12;18.10;35.50
21891;DHT22;11110;52.386;16.940;2023-03-17T08:05:42;18.10;35.50
21891;DHT22;11110;52.386;16.940;2023-03-17T08:08:10;18.10;35.40
21891;DHT22;11110;52.386;16.940;2023-03-17T08:10:40;18.30;35.90
21891;DHT22;11110;52.386;16.940;2023-03-17T08:13:08;18.30;35.00
21891;DHT22;11110;52.386;16.940;2023-03-17T08:15:37;18.40;35.50
21891;DHT22;11110;52.386;16.940;2023-03-17T08:18:08;18.50;34.70
21891;DHT22;11110;52.386;16.940;2023-03-17T08:20:37;18.40;34.80
21891;DHT22;11110;52.386;16.940;2023-03-17T08:23:05;18.50;34.70
21891;DHT22;11110;52.386;16.940;2023-03-17T08:25:35;18.60;34.80
21891;DHT22;11110;52.386;16.940;2023-03-17T08:28:03;18.70;34.40
21891;DHT22;11110;52.386;16.940;2023-03-17T08:30:32;18.70;34.60
21891;DHT22;11110;52.386;16.940;2023-03-17T08:33:02;18.70;34.60
21891;DHT22;11110;52.386;16.940;2023-03-17T08:35:33;18.80;34.40
21891;DHT22;11110;52.386;16.940;2023-03-17T08:38:02;18.80;34.60
21891;DHT22;11110;52.386;16.940;2023-03-17T08:40:31;18.90;34.60
21891;DHT22;11110;52.386;16.940;2023-03-17T08:43:00;19.10;34.40
21891;DHT22;11110;52.386;16.940;2023-03-17T08:45:29;19.00;34.10
21891;DHT22;11110;52.386;16.940;2023-03-17T08:47:58;19.20;34.10
21891;DHT22;11110;52.386;16.940;2023-03-17T08:50:27;19.40;33.40
21891;DHT22;11110;52.386;16.940;2023-03-17T08:52:58;19.40;33.70
21891;DHT22;11110;52.386;16.940;2023-03-17T08:55:42;19.50;33.80
21891;DHT22;11110;52.386;16.940;2023-03-17T08:58:26;19.50;33.90
21891;DHT22;11110;52.386;16.940;2023-03-17T09:00:57;19.70;33.60
21891;DHT22;11110;52.386;16.940;2023-03-17T09:03:27;19.70;33.30
21891;DHT22;11110;52.386;16.940;2023-03-17T09:05:56;19.70;33.00
21891;DHT22;11110;52.386;16.940;2023-03-17T09:08:27;19.70;33.40
21891;DHT22;11110;52.386;16.940;2023-03-17T09:10:56;19.80;33.30
21891;DHT22;11110;52.386;16.940;2023-03-17T09:13:25;19.90;32.70
21891;DHT22;11110;52.386;16.940;2023-03-17T09:15:54;19.90;32.90
21891;DHT22;11110;52.386;16.940;2023-03-17T09:18:23;19.90;33.10
21891;DHT22;11110;52.386;16.940;2023-03-17T09:20:52;20.00;32.80
21891;DHT22;11110;52.386;16.940;2023-03-17T09:23:21;20.10;32.80
21891;DHT22;11110;52.386;16.940;2023-03-17T09:25:52;20.20;32.50
21891;DHT22;11110;52.386;16.940;2023-03-17T09:28:20;20.30;31.80
21891;DHT22;11110;52.386;16.940;2023-03-17T09:30:50;20.40;31.50
21891;DHT22;11110;52.386;16.940;2023-03-17T09:33:19;20.30;31.40
21891;DHT22;11110;52.386;16.940;2023-03-17T09:35:50;20.40;30.60
21891;DHT22;11110;52.386;16.940;2023-03-17T09:38:19;20.10;31.20
21891;DHT22;11110;52.386;16.940;2023-03-17T09:40:55;20.10;30.90
21891;DHT22;11110;52.386;16.940;2023-03-17T09:43:30;20.00;30.40
21891;DHT22;11110;52.386;16.940;2023-03-17T09:46:07;20.20;30.00
21891;DHT22;11110;52.386;16.940;2023-03-17T09:48:52;20.30;30.10
21891;DHT22;11110;52.386;16.940;2023-03-17T09:51:25;20.30;30.10
21891;DHT22;11110;52.386;16.940;2023-03-17T09:53:58;20.30;30.10
21891;DHT22;11110;52.386;16.940;2023-03-17T09:56:31;20.40;30.20
21891;DHT22;11110;52.386;16.940;2023-03-17T09:59:05;20.50;30.00
21891;DHT22;11110;52.386;16.940;2023-03-17T10:01:35;20.60;29.80
21891;DHT22;11110;52.386;16.940;2023-03-17T10:04:08;20.60;29.40
21891;DHT22;11110;52.386;16.940;2023-03-17T10:06:42;20.70;29.50
21891;DHT22;11110;52.386;16.940;2023-03-17T10:09:20;20.70;29.50
21891;DHT22;11110;52.386;16.940;2023-03-17T10:12:02;20.80;29.50
21891;DHT22;11110;52.386;16.940;2023-03-17T10:14:48;20.80;29.40
21891;DHT22;11110;52.386;16.940;2023-03-17T10:17:20;20.80;29.20
21891;DHT22;11110;52.386;16.940;2023-03-17T10:19:55;20.80;29.50
21891;DHT22;11110;52.386;16.940;2023-03-17T10:22:29;20.80;30.00
21891;DHT22;11110;52.386;16.940;2023-03-17T10:25:03;21.00;30.20
21891;DHT22;11110;52.386;16.940;2023-03-17T10:27:36;21.20;30.00
21891;DHT22;11110;52.386;16.940;2023-03-17T10:30:12;21.40;29.80
21891;DHT22;11110;52.386;16.940;2023-03-17T10:32:43;21.40;29.70
21891;DHT22;11110;52.386;16.940;2023-03-17T10:35:13;21.40;30.00
21891;DHT22;11110;52.386;16.940;2023-03-17T10:37:44;21.40;30.30
21891;DHT22;11110;52.386;16.940;2023-03-17T10:40:21;21.40;30.60
21891;DHT22;11110;52.386;16.940;2023-03-17T10:43:01;21.70;29.60
21891;DHT22;11110;52.386;16.940;2023-03-17T10:45:35;21.60;29.70
21891;DHT22;11110;52.386;16.940;2023-03-17T10:48:09;21.70;29.40
21891;DHT22;11110;52.386;16.940;2023-03-17T10:50:39;22.00;28.90
21891;DHT22;11110;52.386;16.940;2023-03-17T10:53:17;22.00;29.40
21891;DHT22;11110;52.386;16.940;2023-03-17T10:55:57;22.10;29.40
21891;DHT22;11110;52.386;16.940;2023-03-17T10:58:38;22.30;28.90
21891;DHT22;11110;52.386;16.940;2023-03-17T11:01:16;22.20;29.30
21891;DHT22;11110;52.386;16.940;2023-03-17T11:03:47;22.20;29.40
21891;DHT22;11110;52.386;16.940;2023-03-17T11:06:17;22.30;28.60
21891;DHT22;11110;52.386;16.940;2023-03-17T11:08:48;22.30;28.70
21891;DHT22;11110;52.386;16.940;2023-03-17T11:11:23;22.50;28.30
21891;DHT22;11110;52.386;16.940;2023-03-17T11:14:02;22.70;27.80
21891;DHT22;11110;52.386;16.940;2023-03-17T11:16:33;22.60;28.60
21891;DHT22;11110;52.386;16.940;2023-03-17T11:19:04;22.50;28.40
21891;DHT22;11110;52.386;16.940;2023-03-17T11:21:43;22.60;28.60
21891;DHT22;11110;52.386;16.940;2023-03-17T11:24:17;22.80;28.20
21891;DHT22;11110;52.386;16.940;2023-03-17T11:26:53;22.70;28.00
21891;DHT22;11110;52.386;16.940;2023-03-17T11:29:35;22.80;27.90
21891;DHT22;11110;52.386;16.940;2023-03-17T11:32:17;22.80;28.00
21891;DHT22;11110;52.386;16.940;2023-03-17T11:34:59;22.80;28.10
21891;DHT22;11110;52.386;16.940;2023-03-17T11:37:43;22.80;28.00
21891;DHT22;11110;52.386;16.940;2023-03-17T11:40:20;23.00;27.70
21891;DHT22;11110;52.386;16.940;2023-03-17T11:43:01;22.80;28.50
21891;DHT22;11110;52.386;16.940;2023-03-17T11:45:38;22.90;28.40
21891;DHT22;11110;52.386;16.940;2023-03-17T11:48:17;22.90;29.60
21891;DHT22;11110;52.386;16.940;2023-03-17T11:50:50;22.90;28.00
21891;DHT22;11110;52.386;16.940;2023-03-17T11:53:33;22.80;28.70
21891;DHT22;11110;52.386;16.940;2023-03-17T11:56:11;22.70;29.10
21891;DHT22;11110;52.386;16.940;2023-03-17T11:58:43;22.70;29.00
21891;DHT22;11110;52.386;16.940;2023-03-17T12:01:16;22.70;28.90
21891;DHT22;11110;52.386;16.940;2023-03-17T12:03:53;22.60;28.90
21891;DHT22;11110;52.386;16.940;2023-03-17T12:06:33;22.60;27.60
21891;DHT22;11110;52.386;16.940;2023-03-17T12:09:08;22.50;27.50
21891;DHT22;11110;52.386;16.940;2023-03-17T12:11:43;22.60;27.70
21891;DHT22;11110;52.386;16.940;2023-03-17T12:14:21;22.50;28.20
21891;DHT22;11110;52.386;16.940;2023-03-17T12:16:59;22.70;27.60
21891;DHT22;11110;52.386;16.940;2023-03-17T12:19:38;22.60;27.70
21891;DHT22;11110;52.386;16.940;2023-03-17T12:22:17;22.60;27.90
21891;DHT22;11110;52.386;16.940;2023-03-17T12:24:52;22.60;27.50
21891;DHT22;11110;52.386;16.940;2023-03-17T12:27:28;22.80;27.30
21891;DHT22;11110;52.386;16.940;2023-03-17T12:30:02;23.00;27.00
21891;DHT22;11110;52.386;16.940;2023-03-17T12:32:40;23.20;27.00
21891;DHT22;11110;52.386;16.940;2023-03-17T12:35:26;23.20;27.20
21891;DHT22;11110;52.386;16.940;2023-03-17T12:37:58;23.20;27.20
21891;DHT22;11110;52.386;16.940;2023-03-17T12:40:31;23.30;26.80
21891;DHT22;11110;52.386;16.940;2023-03-17T12:43:34;23.30;26.50
21891;DHT22;11110;52.386;16.940;2023-03-17T12:46:23;23.40;26.80
21891;DHT22;11110;52.386;16.940;2023-03-17T12:49:24;23.50;26.40
21891;DHT22;11110;52.386;16.940;2023-03-17T12:52:05;23.50;26.50
21891;DHT22;11110;52.386;16.940;2023-03-17T12:54:36;23.50;26.60
21891;DHT22;11110;52.386;16.940;2023-03-17T12:57:13;23.70;26.60
21891;DHT22;11110;52.386;16.940;2023-03-17T12:59:44;23.80;26.40
21891;DHT22;11110;52.386;16.940;2023-03-17T13:02:16;24.00;26.30
21891;DHT22;11110;52.386;16.940;2023-03-17T13:04:52;24.10;26.40
21891;DHT22;11110;52.386;16.940;2023-03-17T13:07:25;24.20;27.40
21891;DHT22;11110;52.386;16.940;2023-03-17T13:13:03;24.30;26.50
21891;DHT22;11110;52.386;16.940;2023-03-17T13:15:53;24.50;26.30
21891;DHT22;11110;52.386;16.940;2023-03-17T13:18:44;24.50;26.00
21891;DHT22;11110;52.386;16.940;2023-03-17T13:21:17;24.60;26.10
21891;DHT22;11110;52.386;16.940;2023-03-17T13:23:53;24.60;25.70
21891;DHT22;11110;52.386;16.940;2023-03-17T13:29:24;24.60;25.40
21891;DHT22;11110;52.386;16.940;2023-03-17T13:35:38;24.50;25.30
21891;DHT22;11110;52.386;16.940;2023-03-17T13:38:39;24.50;25.20
21891;DHT22;11110;52.386;16.940;2023-03-17T13:41:33;24.70;25.40
21891;DHT22;11110;52.386;16.940;2023-03-17T13:44:34;24.70;25.40
21891;DHT22;11110;52.386;16.940;2023-03-17T13:47:26;24.80;25.60
21891;DHT22;11110;52.386;16.940;2023-03-17T13:50:00;24.80;25.90
21891;DHT22;11110;52.386;16.940;2023-03-17T13:52:31;24.70;25.40
21891;DHT22;11110;52.386;16.940;2023-03-17T13:55:34;24.70;25.80
21891;DHT22;11110;52.386;16.940;2023-03-17T13:58:22;24.70;24.90
21891;DHT22;11110;52.386;16.940;2023-03-17T14:00:58;24.90;25.00
21891;DHT22;11110;52.386;16.940;2023-03-17T14:03:33;24.90;25.60
21891;DHT22;11110;52.386;16.940;2023-03-17T14:06:04;24.90;25.30
21891;DHT22;11110;52.386;16.940;2023-03-17T14:08:35;24.90;25.20
21891;DHT22;11110;52.386;16.940;2023-03-17T14:11:26;24.90;24.70
21891;DHT22;11110;52.386;16.940;2023-03-17T14:14:10;25.00;24.70
21891;DHT22;11110;52.386;16.940;2023-03-17T14:17:03;25.00;25.00
21891;DHT22;11110;52.386;16.940;2023-03-17T14:19:34;24.80;25.40
21891;DHT22;11110;52.386;16.940;2023-03-17T14:22:19;24.70;24.80
21891;DHT22;11110;52.386;16.940;2023-03-17T14:24:51;24.60;24.60
21891;DHT22;11110;52.386;16.940;2023-03-17T14:27:22;24.70;24.80
21891;DHT22;11110;52.386;16.940;2023-03-17T14:29:51;24.70;24.90
21891;DHT22;11110;52.386;16.940;2023-03-17T14:32:22;24.70;25.00
21891;DHT22;11110;52.386;16.940;2023-03-17T14:34:55;24.80;24.90
21891;DHT22;11110;52.386;16.940;2023-03-17T14:37:25;24.80;24.70
21891;DHT22;11110;52.386;16.940;2023-03-17T14:39:56;24.70;25.00
21891;DHT22;11110;52.386;16.940;2023-03-17T14:42:28;23.90;24.60
21891;DHT22;11110;52.386;16.940;2023-03-17T14:45:02;24.60;24.80
21891;DHT22;11110;52.386;16.940;2023-03-17T14:47:36;24.70;25.00
21891;DHT22;11110;52.386;16.940;2023-03-17T14:50:14;24.60;25.20
21891;DHT22;11110;52.386;16.940;2023-03-17T14:52:44;24.50;25.30
21891;DHT22;11110;52.386;16.940;2023-03-17T14:55:13;24.50;25.30
21891;DHT22;11110;52.386;16.940;2023-03-17T14:57:48;24.60;25.60
21891;DHT22;11110;52.386;16.940;2023-03-17T15:00:32;24.60;25.60
21891;DHT22;11110;52.386;16.940;2023-03-17T15:03:16;24.50;25.70
21891;DHT22;11110;52.386;16.940;2023-03-17T15:05:45;24.50;25.60
21891;DHT22;11110;52.386;16.940;2023-03-17T15:08:40;24.40;25.80
21891;DHT22;11110;52.386;16.940;2023-03-17T15:11:20;24.50;25.70
21891;DHT22;11110;52.386;16.940;2023-03-17T15:13:53;24.50;25.90
21891;DHT22;11110;52.386;16.940;2023-03-17T15:16:26;24.30;25.90
21891;DHT22;11110;52.386;16.940;2023-03-17T15:19:06;24.30;26.10
21891;DHT22;11110;52.386;16.940;2023-03-17T15:21:38;24.30;26.20
21891;DHT22;11110;52.386;16.940;2023-03-17T15:24:36;24.30;26.30
21891;DHT22;11110;52.386;16.940;2023-03-17T15:27:12;24.30;26.40
21891;DHT22;11110;52.386;16.940;2023-03-17T15:29:43;24.30;26.40
21891;DHT22;11110;52.386;16.940;2023-03-17T15:32:14;24.30;26.50
21891;DHT22;11110;52.386;16.940;2023-03-17T15:34:43;24.20;26.40
21891;DHT22;11110;52.386;16.940;2023-03-17T15:37:16;24.20;26.50
21891;DHT22;11110;52.386;16.940;2023-03-17T15:39:46;24.30;26.70
21891;DHT22;11110;52.386;16.940;2023-03-17T15:42:17;24.20;26.60
21891;DHT22;11110;52.386;16.940;2023-03-17T15:44:48;24.20;26.60
21891;DHT22;11110;52.386;16.940;2023-03-17T15:47:17;24.10;26.60
21891;DHT22;11110;52.386;16.940;2023-03-17T15:49:48;24.10;26.70
21891;DHT22;11110;52.386;16.940;2023-03-17T15:52:18;24.10;26.60
21891;DHT22;11110;52.386;16.940;2023-03-17T15:54:52;24.10;26.80
21891;DHT22;11110;52.386;16.940;2023-03-17T15:57:21;24.10;26.90